Time;durP1;ratioP1;P1;durP2;ratioP2;P2;SDS_P1;SDS_P2;PMS_P1;PMS_P2;Temp;Humidity;BMP_temperature;BMP_pressure;BME280_temperature;BME280_humidity;BME280_pressure;Samples;Min_cycle;Max_cycle;Signal;HPM_P1;HPM_P2
2021/11/25 00:02:15;;;;;;;22.87;14.40;;;;;;;4.68;82.44;100647.09;1738160;82;21131;-73
2021/11/25 00:04:41;;;;;;;22.42;14.50;;;;;;;4.67;82.35;100644.60;1738168;82;20917;-73
2021/11/25 00:07:07;;;;;;;31.82;16.57;;;;;;;4.66;82.25;100640.27;1738183;82;20870;-73
2021/11/25 00:09:32;;;;;;;29.18;15.63;;;;;;;4.64;82.17;100639.09;1738160;82;20913;-73
2021/11/25 00:11:58;;;;;;;26.23;16.45;;;;;;;4.62;82.07;100636.20;1761122;81;21012;-73
2021/11/25 00:14:24;;;;;;;26.80;16.80;;;;;;;4.62;82.00;100634.41;1768776;81;20959;-73
2021/11/25 00:16:50;;;;;;;21.70;15.90;;;;;;;4.60;81.93;100628.42;1755436;81;20880;-72
2021/11/25 00:19:16;;;;;;;22.73;15.38;;;;;;;4.60;81.85;100619.66;1767279;81;20868;-72
2021/11/25 00:21:42;;;;;;;56.20;23.18;;;;;;;4.57;81.78;100619.92;1717136;82;20887;-72
2021/11/25 00:24:08;;;;;;;34.63;18.80;;;;;;;4.54;81.69;100610.42;1755074;81;21766;-72
2021/11/25 00:26:35;;;;;;;27.90;17.30;;;;;;;4.52;81.63;100611.04;1738151;82;20949;-73
2021/11/25 00:29:01;;;;;;;26.93;17.98;;;;;;;4.49;81.57;100608.66;1758083;81;20975;-73
2021/11/25 00:31:27;;;;;;;33.55;18.77;;;;;;;4.43;81.48;100606.02;1746468;81;21465;-73
2021/11/25 00:33:53;;;;;;;33.13;19.62;;;;;;;4.38;81.41;100600.30;1762157;81;20953;-73
2021/11/25 00:36:19;;;;;;;48.17;24.75;;;;;;;4.32;81.37;100598.16;1713536;81;21119;-73
2021/11/25 00:38:46;;;;;;;52.50;23.38;;;;;;;4.27;81.32;100599.01;1733094;82;20900;-73
2021/11/25 00:41:13;;;;;;;82.90;32.75;;;;;;;4.21;81.26;100596.03;1737630;81;21089;-72
2021/11/25 00:43:39;;;;;;;72.75;30.25;;;;;;;4.10;81.21;100596.91;1696776;84;20988;-72
2021/11/25 00:46:05;;;;;;;100.50;34.48;;;;;;;4.01;81.15;100591.05;1716891;81;21766;-72
2021/11/25 00:48:31;;;;;;;100.95;37.17;;;;;;;3.90;81.11;100591.08;1743154;81;21556;-73
2021/11/25 00:50:57;;;;;;;90.70;38.70;;;;;;;3.78;81.06;100585.45;1723971;81;21798;-72
2021/11/25 00:53:23;;;;;;;81.90;35.73;;;;;;;3.65;81.05;100582.11;1750617;81;21049;-73
2021/11/25 00:55:49;;;;;;;76.15;33.15;;;;;;;3.50;81.01;100585.00;1755606;81;21618;-73
2021/11/25 00:58:17;;;;;;;68.57;32.13;;;;;;;3.39;81.00;100582.83;1735668;82;21107;-72
2021/11/25 01:00:43;;;;;;;57.95;30.45;;;;;;;3.29;80.94;100581.88;1741392;81;22146;-72
2021/11/25 01:03:09;;;;;;;39.48;24.63;;;;;;;3.19;80.93;100583.55;1727989;82;20922;-72
2021/11/25 01:05:35;;;;;;;45.70;24.10;;;;;;;3.09;80.91;100577.31;1708156;82;21046;-72
2021/11/25 01:08:01;;;;;;;38.08;23.77;;;;;;;3.01;80.86;100577.89;1713836;82;21561;-72
2021/11/25 01:10:27;;;;;;;38.88;22.20;;;;;;;2.95;80.85;100578.37;1735249;82;20871;-72
2021/11/25 01:12:54;;;;;;;34.23;22.55;;;;;;;2.86;80.85;100576.42;1735186;82;21137;-72
2021/11/25 01:15:29;;;;;;;47.90;26.97;;;;;;;2.78;80.83;100574.86;1735186;82;20998;-72
2021/11/25 01:17:50;;;;;;;40.38;24.90;;;;;;;2.69;80.86;100567.64;1763293;80;21056;-72
2021/11/25 01:20:17;;;;;;;39.60;23.70;;;;;;;2.61;80.84;100558.16;1749317;82;20956;-72
2021/11/25 01:22:43;;;;;;;34.13;21.75;;;;;;;2.53;80.86;100553.97;1749535;81;21063;-72
2021/11/25 01:25:09;;;;;;;36.15;22.52;;;;;;;2.45;80.86;100552.75;1749206;80;21072;-72
2021/11/25 01:27:35;;;;;;;38.30;22.62;;;;;;;2.38;80.87;100550.20;1749109;80;20969;-72
2021/11/25 01:30:03;;;;;;;74.35;34.23;;;;;;;2.33;80.87;100547.54;1749401;80;20878;-72
2021/11/25 01:32:29;;;;;;;60.40;29.72;;;;;;;2.26;80.88;100555.05;1789854;79;21038;-72
2021/11/25 01:34:55;;;;;;;44.40;23.92;;;;;;;2.19;80.88;100551.19;1752010;78;20980;-72
2021/11/25 01:37:23;;;;;;;34.65;21.23;;;;;;;2.06;80.90;100545.16;1802879;78;21155;-72
2021/11/25 01:39:49;;;;;;;31.70;20.15;;;;;;;1.92;80.92;100540.07;1802883;79;21029;-72
2021/11/25 01:42:15;;;;;;;31.65;19.67;;;;;;;1.81;80.94;100547.89;1802832;79;20962;-72
2021/11/25 01:44:40;;;;;;;29.65;18.92;;;;;;;1.73;80.96;100543.17;1802053;79;20914;-72
2021/11/25 01:47:06;;;;;;;27.10;18.48;;;;;;;1.70;80.98;100536.83;1803117;78;20958;-72
2021/11/25 01:49:32;;;;;;;26.85;18.45;;;;;;;1.64;81.01;100529.86;1803082;78;21153;-72
2021/11/25 01:51:58;;;;;;;31.35;20.08;;;;;;;1.57;81.03;100526.00;1802785;79;20937;-72
2021/11/25 01:54:25;;;;;;;28.95;18.17;;;;;;;1.50;81.08;100523.81;1812557;78;21058;-72
2021/11/25 01:56:51;;;;;;;30.82;18.07;;;;;;;1.48;81.09;100517.81;1819931;78;20977;-72
2021/11/25 01:59:17;;;;;;;30.35;18.00;;;;;;;1.43;81.11;100509.44;1820184;78;21431;-72
2021/11/25 02:01:43;;;;;;;30.17;18.17;;;;;;;1.38;81.16;100512.84;1820237;78;21162;-72
2021/11/25 02:04:09;;;;;;;31.35;18.55;;;;;;;1.33;81.16;100508.41;1820159;78;21014;-72
2021/11/25 02:06:35;;;;;;;29.20;18.95;;;;;;;1.30;81.17;100509.92;1819946;78;20891;-72
2021/11/25 02:09:01;;;;;;;28.27;17.67;;;;;;;1.25;81.21;100504.64;1820059;78;20902;-72
2021/11/25 02:11:28;;;;;;;27.25;18.37;;;;;;;1.19;81.24;100494.10;1820122;78;20927;-72
2021/11/25 02:13:54;;;;;;;26.93;19.50;;;;;;;1.12;81.27;100494.16;1820035;78;21143;-72
2021/11/25 02:16:20;;;;;;;30.23;20.72;;;;;;;1.04;81.31;100487.29;1819765;78;20971;-73
2021/11/25 02:18:46;;;;;;;30.32;20.85;;;;;;;0.97;81.32;100486.04;1791990;78;20873;-72
2021/11/25 02:21:12;;;;;;;28.85;19.27;;;;;;;0.95;81.36;100487.95;1789445;80;21527;-72
2021/11/25 02:23:38;;;;;;;40.63;21.65;;;;;;;0.92;81.38;100480.25;1789591;79;21023;-72
2021/11/25 02:26:04;;;;;;;31.70;21.02;;;;;;;0.86;81.40;100471.50;1753287;81;21092;-72
2021/11/25 02:28:34;;;;;;;31.35;18.42;;;;;;;0.81;81.43;100464.44;1789733;79;20969;-72
2021/11/25 02:31:00;;;;;;;25.75;17.50;;;;;;;0.77;81.47;100455.09;1789591;78;21493;-72
2021/11/25 02:33:26;;;;;;;30.00;18.92;;;;;;;0.72;81.46;100449.31;1789496;78;20960;-72
2021/11/25 02:35:52;;;;;;;30.65;19.55;;;;;;;0.73;81.50;100446.59;1754193;81;20992;-72
2021/11/25 02:38:18;;;;;;;25.52;16.40;;;;;;;0.75;81.56;100442.06;1791329;79;21012;-72
2021/11/25 02:40:48;;;;;;;25.50;17.23;;;;;;;0.77;81.57;100434.09;1739037;82;21030;-72
2021/11/25 02:43:17;;;;;;;28.83;18.07;;;;;;;0.80;81.59;100426.00;1781679;79;21052;-72
2021/11/25 02:45:46;;;;;;;33.10;20.37;;;;;;;0.84;81.62;100419.59;1782345;79;21551;-72
2021/11/25 02:48:13;;;;;;;34.30;20.00;;;;;;;0.86;81.65;100419.00;1781912;80;21012;-73
2021/11/25 02:50:39;;;;;;;37.50;22.25;;;;;;;0.89;81.69;100417.47;1782084;80;21129;-73
2021/11/25 02:53:05;;;;;;;109.80;43.28;;;;;;;0.91;81.72;100407.72;1781793;80;21018;-73
2021/11/25 02:55:31;;;;;;;203.50;68.25;;;;;;;0.94;81.72;100404.88;1751123;80;20982;-72
2021/11/25 02:57:57;;;;;;;80.70;31.37;;;;;;;0.98;81.75;100402.40;1751142;82;20882;-72
2021/11/25 03:00:29;;;;;;;42.05;21.75;;;;;;;1.02;81.78;100399.08;1751099;81;21648;-73
2021/11/25 03:03:06;;;;;;;41.20;22.00;;;;;;;1.08;81.80;100386.35;1751083;81;21059;-73
2021/11/25 03:05:32;;;;;;;31.02;19.25;;;;;;;1.15;81.78;100382.80;1745496;80;20984;-73
2021/11/25 03:08:06;;;;;;;29.90;17.20;;;;;;;1.16;81.84;100377.42;1766090;80;21039;-72
2021/11/25 03:10:42;;;;;;;28.57;18.10;;;;;;;1.18;81.83;100374.23;1780226;80;21485;-72
2021/11/25 03:13:11;;;;;;;37.30;20.90;;;;;;;1.20;81.86;100379.35;1779843;79;20991;-73
2021/11/25 03:15:38;;;;;;;30.60;17.67;;;;;;;1.20;81.87;100377.57;1764685;79;21085;-72
2021/11/25 03:18:05;;;;;;;28.70;17.62;;;;;;;1.18;81.89;100379.48;1750562;80;20984;-72
2021/11/25 03:20:32;;;;;;;30.60;18.05;;;;;;;1.15;81.91;100382.34;1709429;82;21157;-72
2021/11/25 03:22:58;;;;;;;78.97;32.73;;;;;;;1.13;81.93;100374.18;1750839;81;21577;-72
2021/11/25 03:25:24;;;;;;;129.32;45.40;;;;;;;1.11;81.95;100368.21;1750936;82;20984;-72
2021/11/25 03:27:51;;;;;;;137.47;47.93;;;;;;;1.06;81.96;100364.59;1779600;80;21030;-72
2021/11/25 03:30:17;;;;;;;106.35;38.45;;;;;;;1.02;81.99;100360.55;1779640;79;21024;-72
2021/11/25 03:32:43;;;;;;;54.45;24.60;;;;;;;0.97;82.01;100355.61;1782061;79;21598;-72
2021/11/25 03:35:09;;;;;;;37.15;19.80;;;;;;;0.92;82.04;100349.00;1781858;79;20992;-72
2021/11/25 03:37:35;;;;;;;29.35;18.25;;;;;;;0.88;82.06;100347.06;1809956;79;21462;-72
2021/11/25 03:40:03;;;;;;;31.62;20.48;;;;;;;0.81;82.09;100335.83;1813621;79;21485;-72
2021/11/25 03:42:29;;;;;;;29.05;17.87;;;;;;;0.73;82.09;100336.38;1799524;78;21053;-72
2021/11/25 03:44:55;;;;;;;30.02;19.32;;;;;;;0.69;82.12;100326.19;1782008;80;20894;-72
2021/11/25 03:47:21;;;;;;;31.02;18.75;;;;;;;0.64;82.12;100320.42;1781934;80;20890;-72
2021/11/25 03:49:47;;;;;;;31.75;19.12;;;;;;;0.58;82.14;100313.83;1782378;80;21612;-72
2021/11/25 03:52:13;;;;;;;31.73;17.73;;;;;;;0.55;82.16;100307.97;1781887;80;21090;-72
2021/11/25 03:54:39;;;;;;;34.98;20.32;;;;;;;0.52;82.18;100309.50;1794350;79;20949;-72
2021/11/25 03:57:05;;;;;;;30.00;18.75;;;;;;;0.45;82.19;100300.76;1813729;78;20965;-72
2021/11/25 03:59:31;;;;;;;31.75;19.55;;;;;;;0.42;82.20;100288.33;1813854;79;21060;-72
2021/11/25 04:01:57;;;;;;;31.37;19.00;;;;;;;0.37;82.22;100283.88;1813774;79;20965;-71
2021/11/25 04:04:23;;;;;;;35.80;21.68;;;;;;;0.34;82.26;100274.44;1786880;79;21696;-71
2021/11/25 04:06:49;;;;;;;34.30;20.80;;;;;;;0.32;82.29;100268.92;1781983;80;21044;-71
2021/11/25 04:09:15;;;;;;;35.50;20.45;;;;;;;0.29;82.31;100267.36;1781938;80;20957;-72
2021/11/25 04:11:40;;;;;;;31.62;19.95;;;;;;;0.25;82.32;100265.89;1782306;80;20925;-71
2021/11/25 04:14:06;;;;;;;33.65;20.45;;;;;;;0.22;82.33;100254.78;1782115;79;20866;-72
2021/11/25 04:16:32;;;;;;;37.20;20.27;;;;;;;0.19;82.36;100262.41;1795198;79;21126;-72
2021/11/25 04:18:58;;;;;;;35.92;21.05;;;;;;;0.14;82.37;100255.31;1813590;79;21548;-72
2021/11/25 04:21:25;;;;;;;33.90;22.25;;;;;;;0.13;82.41;100254.97;1813892;78;20902;-72
2021/11/25 04:23:51;;;;;;;50.52;27.80;;;;;;;0.10;82.43;100244.70;1814017;79;20989;-72
2021/11/25 04:26:17;;;;;;;34.67;20.62;;;;;;;0.08;82.43;100241.34;1813995;79;21722;-72
2021/11/25 04:28:43;;;;;;;28.83;18.62;;;;;;;0.07;82.43;100237.03;1790028;79;21172;-72
2021/11/25 04:36:39;;;;;;;44.30;24.00;;;;;;;-0.02;82.47;100220.19;1781872;79;20994;-72
2021/11/25 04:39:05;;;;;;;39.73;22.80;;;;;;;0.02;82.49;100216.87;1781685;79;21006;-73
2021/11/25 04:41:31;;;;;;;37.33;22.70;;;;;;;-0.02;82.51;100206.23;1781966;80;21130;-72
2021/11/25 04:43:57;;;;;;;40.40;21.65;;;;;;;-0.04;82.54;100206.36;1791397;79;20873;-73
2021/11/25 04:46:23;;;;;;;37.17;20.68;;;;;;;-0.05;82.58;100197.28;1814224;78;21035;-72
2021/11/25 04:48:49;;;;;;;33.42;21.07;;;;;;;-0.08;82.60;100202.74;1813955;79;20937;-72
2021/11/25 04:51:15;;;;;;;38.80;24.12;;;;;;;-0.12;82.61;100202.59;1814111;78;20862;-72
2021/11/25 04:53:41;;;;;;;42.48;24.55;;;;;;;-0.16;82.64;100198.50;1789232;79;21439;-72
2021/11/25 04:56:07;;;;;;;46.15;25.32;;;;;;;-0.17;82.67;100200.74;1768912;81;20878;-72
2021/11/25 04:58:33;;;;;;;73.67;39.75;;;;;;;-0.19;82.67;100193.48;1743865;81;21534;-72
2021/11/25 05:00:59;;;;;;;82.00;42.27;;;;;;;-0.24;82.72;100196.41;1738202;81;20972;-73
2021/11/25 05:03:25;;;;;;;80.72;39.35;;;;;;;-0.27;82.75;100187.92;1760735;81;20966;-72
2021/11/25 05:05:54;;;;;;;91.70;46.05;;;;;;;-0.28;82.76;100191.52;1745659;81;21703;-72
2021/11/25 05:08:19;;;;;;;71.02;40.43;;;;;;;-0.30;82.79;100182.43;1762673;80;20992;-72
2021/11/25 05:10:45;;;;;;;114.05;57.35;;;;;;;-0.29;82.81;100193.75;1764509;80;20867;-74
2021/11/25 05:13:11;;;;;;;74.90;39.63;;;;;;;-0.29;82.83;100195.06;1754301;81;20929;-73
2021/11/25 05:15:37;;;;;;;64.37;31.50;;;;;;;-0.27;82.86;100192.70;1751762;81;20989;-72
2021/11/25 05:18:03;;;;;;;54.95;28.45;;;;;;;-0.29;82.86;100184.58;1751257;81;20993;-73
2021/11/25 05:20:29;;;;;;;58.13;29.32;;;;;;;-0.31;82.90;100191.69;1737228;82;21145;-73
2021/11/25 05:22:55;;;;;;;54.60;28.07;;;;;;;-0.36;82.92;100195.12;1737401;82;20957;-72
2021/11/25 05:25:22;;;;;;;57.45;28.60;;;;;;;-0.44;82.96;100190.88;1752982;81;20907;-73
2021/11/25 05:27:48;;;;;;;62.55;31.97;;;;;;;-0.53;83.00;100191.05;1737235;82;21527;-72
2021/11/25 05:30:14;;;;;;;62.25;31.30;;;;;;;-0.57;83.01;100191.73;1739718;81;21107;-72
2021/11/25 05:32:40;;;;;;;55.17;29.67;;;;;;;-0.60;83.04;100186.67;1752172;81;21472;-72
2021/11/25 05:35:07;;;;;;;48.48;28.30;;;;;;;-0.64;83.04;100185.23;1757120;81;21493;-72
2021/11/25 05:37:34;;;;;;;63.13;31.07;;;;;;;-0.66;83.05;100183.64;1753544;81;21032;-72
2021/11/25 05:40:02;;;;;;;79.00;37.30;;;;;;;-0.79;83.04;100186.27;1767082;80;21510;-71
2021/11/25 05:42:30;;;;;;;77.53;40.45;;;;;;;-0.86;83.05;100182.38;1762061;79;21843;-72
2021/11/25 05:44:57;;;;;;;79.60;38.42;;;;;;;-0.88;83.09;100186.86;1762261;79;21514;-70
2021/11/25 05:47:23;;;;;;;59.77;31.73;;;;;;;-0.88;83.08;100176.39;1749581;80;21510;-73
2021/11/25 05:49:49;;;;;;;42.15;23.15;;;;;;;-0.92;83.06;100174.11;1778167;80;20934;-72
2021/11/25 05:52:15;;;;;;;38.58;22.98;;;;;;;-1.03;83.07;100170.90;1754331;80;20871;-73
2021/11/25 05:54:41;;;;;;;43.35;23.35;;;;;;;-1.13;83.10;100164.60;1758173;80;21773;-72
2021/11/25 05:57:07;;;;;;;49.67;24.63;;;;;;;-1.17;83.12;100163.97;1750593;80;27079;-72
2021/11/25 05:59:33;;;;;;;51.58;24.82;;;;;;;-1.17;83.14;100159.20;1774461;80;20867;-73
2021/11/25 06:02:02;;;;;;;71.47;27.73;;;;;;;-1.22;83.14;100161.27;1752024;80;21033;-73
2021/11/25 06:04:27;;;;;;;193.07;48.13;;;;;;;-1.30;83.13;100158.34;1752230;81;21039;-73
2021/11/25 06:06:53;;;;;;;443.40;116.93;;;;;;;-1.37;83.17;100153.14;1753103;80;21031;-72
2021/11/25 06:09:19;;;;;;;437.27;120.75;;;;;;;-1.42;83.18;100156.05;1751710;80;21541;-72
2021/11/25 06:11:47;;;;;;;575.27;163.30;;;;;;;-1.42;83.18;100153.91;1751872;81;20926;-73
2021/11/25 06:14:13;;;;;;;600.50;177.02;;;;;;;-1.42;83.22;100153.91;1752268;80;21471;-72
2021/11/25 06:16:39;;;;;;;567.05;164.57;;;;;;;-1.43;83.24;100146.98;1751978;81;21045;-73
2021/11/25 06:19:05;;;;;;;524.30;133.27;;;;;;;-1.40;83.26;100153.32;1752411;81;21159;-73
2021/11/25 06:21:30;;;;;;;198.85;54.42;;;;;;;-1.36;83.29;100152.19;1751886;81;21584;-73
2021/11/25 06:23:56;;;;;;;235.97;66.22;;;;;;;-1.35;83.30;100157.80;1752329;81;26706;-73
2021/11/25 07:24:37;;;;;;;138.75;54.23;;;;;;;-0.37;83.41;100150.22;1817263;79;22744;-73
2021/11/25 07:27:03;;;;;;;113.50;45.88;;;;;;;-0.64;83.47;100143.34;1791037;80;21645;-73
2021/11/25 07:29:30;;;;;;;219.93;102.07;;;;;;;-0.75;83.53;100143.70;1790797;80;21484;-73
2021/11/25 07:31:56;;;;;;;225.47;108.42;;;;;;;-0.86;83.59;100137.05;1790887;80;20879;-73
2021/11/25 07:34:22;;;;;;;111.20;54.83;;;;;;;-0.86;83.68;100140.97;1790808;80;21463;-73
2021/11/25 07:36:48;;;;;;;110.97;52.67;;;;;;;-0.79;83.72;100133.06;1790687;80;20919;-73
2021/11/25 07:39:14;;;;;;;103.55;47.73;;;;;;;-0.73;83.78;100126.94;1791010;80;21031;-73
2021/11/25 07:41:41;;;;;;;112.75;49.15;;;;;;;-0.70;83.84;100125.41;1791080;80;21831;-73
2021/11/25 07:44:07;;;;;;;100.72;43.52;;;;;;;-0.72;83.86;100118.15;1791021;80;21549;-73
2021/11/25 07:46:34;;;;;;;93.15;43.38;;;;;;;-0.68;83.92;100110.45;1790870;80;20907;-73
2021/11/25 07:49:02;;;;;;;87.97;42.45;;;;;;;-0.64;83.93;100113.23;1791016;80;21062;-73
2021/11/25 07:51:31;;;;;;;92.33;44.35;;;;;;;-0.61;83.97;100106.47;1790813;80;21029;-73
2021/11/25 07:53:58;;;;;;;86.40;49.73;;;;;;;-0.58;83.95;100108.87;1790996;80;21165;-72
2021/11/25 07:56:24;;;;;;;163.45;85.85;;;;;;;-0.55;83.97;100102.10;1790923;80;21047;-73
2021/11/25 07:58:50;;;;;;;114.90;56.88;;;;;;;-0.49;83.99;100095.59;1790947;80;21011;-73
2021/11/25 08:01:16;;;;;;;139.40;63.95;;;;;;;-0.44;84.00;100084.80;1791080;80;21573;-73
2021/11/25 08:03:42;;;;;;;113.68;52.33;;;;;;;-0.34;84.02;100087.13;1790625;80;21151;-73
2021/11/25 08:06:08;;;;;;;62.67;32.65;;;;;;;-0.25;84.04;100076.02;1791009;80;21169;-73
2021/11/25 08:08:34;;;;;;;65.47;31.00;;;;;;;-0.16;84.05;100074.03;1790570;80;21031;-73
2021/11/25 08:11:03;;;;;;;48.52;28.47;;;;;;;-0.07;84.07;100073.39;1790981;80;21084;-73
2021/11/25 08:13:32;;;;;;;50.58;27.40;;;;;;;-0.01;84.08;100071.63;1790967;80;21034;-73
2021/11/25 08:15:57;;;;;;;58.38;28.38;;;;;;;0.06;84.08;100064.99;1790707;80;21515;-73
2021/11/25 08:18:23;;;;;;;89.90;42.27;;;;;;;0.15;84.13;100061.69;1790934;80;21392;-73
2021/11/25 08:20:49;;;;;;;79.20;36.98;;;;;;;0.25;84.12;100060.06;1782762;80;21675;-73
2021/11/25 08:23:15;;;;;;;62.73;31.00;;;;;;;0.32;84.13;100069.14;1760565;81;20995;-73
2021/11/25 08:25:41;;;;;;;66.33;31.05;;;;;;;0.38;84.13;100060.01;1762350;81;21031;-73
2021/11/25 08:28:07;;;;;;;58.98;28.95;;;;;;;0.44;84.14;100056.92;1762452;81;21098;-73
2021/11/25 08:30:33;;;;;;;55.67;28.67;;;;;;;0.47;84.17;100047.03;1762726;81;22009;-73
2021/11/25 08:32:59;;;;;;;58.50;29.42;;;;;;;0.52;84.16;100048.48;1762549;81;21042;-73
2021/11/25 08:35:26;;;;;;;61.70;29.90;;;;;;;0.57;84.15;100049.80;1762191;81;20904;-73
2021/11/25 08:37:52;;;;;;;57.55;32.28;;;;;;;0.67;84.16;100049.97;1762046;81;21012;-73
2021/11/25 08:40:18;;;;;;;54.65;27.05;;;;;;;0.76;84.16;100046.63;1762305;81;21064;-73
2021/11/25 08:42:45;;;;;;;52.93;27.10;;;;;;;0.82;84.16;100044.37;1762021;81;21560;-73
2021/11/25 08:45:11;;;;;;;54.60;27.95;;;;;;;0.91;84.16;100040.22;1761987;81;21056;-73
2021/11/25 08:47:37;;;;;;;49.50;25.90;;;;;;;0.95;84.15;100032.48;1762137;81;21088;-73
2021/11/25 08:50:05;;;;;;;41.42;25.15;;;;;;;0.99;84.13;100033.88;1761964;81;20968;-73
2021/11/25 08:52:31;;;;;;;45.00;25.37;;;;;;;1.04;84.14;100033.06;1761957;81;21044;-73
2021/11/25 08:54:57;;;;;;;43.60;25.50;;;;;;;1.07;84.12;100032.83;1762407;81;21130;-73
2021/11/25 08:57:23;;;;;;;48.68;25.95;;;;;;;1.12;84.11;100037.25;1762117;81;20988;-73
2021/11/25 08:59:49;;;;;;;48.87;27.75;;;;;;;1.11;84.12;100041.30;1761971;81;20928;-73
2021/11/25 09:02:15;;;;;;;46.45;26.60;;;;;;;1.12;84.07;100049.07;1762441;81;21071;-73
2021/11/25 09:04:41;;;;;;;52.23;26.17;;;;;;;1.19;84.04;100047.64;1762147;81;20913;-73
2021/11/25 09:07:07;;;;;;;60.03;30.40;;;;;;;1.18;83.98;100040.71;1762077;81;21008;-73
2021/11/25 09:09:33;;;;;;;63.58;27.55;;;;;;;1.21;83.96;100023.87;1762102;81;21705;-73
2021/11/25 09:11:59;;;;;;;59.50;29.55;;;;;;;1.21;83.95;100026.02;1761911;81;20991;-73
2021/11/25 09:14:25;;;;;;;45.55;25.30;;;;;;;1.26;83.93;100026.52;1762136;81;20873;-73
2021/11/25 09:16:50;;;;;;;45.50;26.75;;;;;;;1.32;83.92;100020.77;1762259;81;20913;-73
2021/11/25 09:19:16;;;;;;;57.23;29.55;;;;;;;1.35;83.92;100031.03;1762099;81;21960;-73
2021/11/25 09:21:42;;;;;;;71.85;34.73;;;;;;;1.38;83.91;100018.12;1761537;81;21411;-73
2021/11/25 09:24:09;;;;;;;56.63;30.08;;;;;;;1.42;83.88;100016.93;1761947;81;21521;-73
2021/11/25 09:26:36;;;;;;;89.10;42.83;;;;;;;1.43;83.88;100026.49;1761793;81;21035;-73
2021/11/25 09:29:03;;;;;;;65.28;34.10;;;;;;;1.43;83.88;100020.77;1762264;81;21052;-73
2021/11/25 09:31:31;;;;;;;59.63;32.98;;;;;;;1.55;83.87;100027.33;1761871;81;21122;-73
2021/11/25 09:33:57;;;;;;;44.03;26.70;;;;;;;1.57;83.81;100031.48;1762049;81;21040;-73
2021/11/25 09:36:23;;;;;;;46.60;26.30;;;;;;;1.55;83.78;100020.75;1762023;81;20877;-73
2021/11/25 09:38:49;;;;;;;39.55;23.70;;;;;;;1.57;83.79;100025.39;1761923;81;21465;-73
2021/11/25 09:41:15;;;;;;;49.42;26.62;;;;;;;1.59;83.73;100016.42;1762104;81;20956;-73
2021/11/25 09:43:41;;;;;;;48.68;28.70;;;;;;;1.65;83.74;100021.22;1762014;81;21105;-73
2021/11/25 09:46:09;;;;;;;40.08;25.92;;;;;;;1.71;83.73;100005.42;1762163;81;21268;-73
2021/11/25 09:48:35;;;;;;;44.45;27.70;;;;;;;1.77;83.71;100006.23;1762030;81;20996;-73
2021/11/25 09:51:01;;;;;;;47.48;29.48;;;;;;;1.78;83.67;100010.54;1761971;81;21020;-73
2021/11/25 09:53:28;;;;;;;54.65;30.77;;;;;;;1.78;83.64;100009.22;1762259;81;20905;-73
2021/11/25 09:55:55;;;;;;;55.55;33.08;;;;;;;1.88;83.65;100012.77;1761989;81;21106;-73
2021/11/25 09:58:25;;;;;;;46.95;28.90;;;;;;;2.04;83.64;100011.90;1762064;81;21087;-73
2021/11/25 10:01:03;;;;;;;51.68;30.08;;;;;;;2.15;83.58;100001.78;1761589;81;21015;-73
2021/11/25 10:03:33;;;;;;;60.70;33.83;;;;;;;2.23;83.53;100000.20;1761762;81;21032;-73
2021/11/25 10:05:59;;;;;;;66.07;35.40;;;;;;;2.35;83.51;99992.63;1762121;81;21560;-73
2021/11/25 10:08:45;;;;;;;74.00;36.33;;;;;;;2.50;83.50;99987.38;1762091;81;21087;-73
2021/11/25 10:11:15;;;;;;;73.65;34.20;;;;;;;2.61;83.46;99981.69;1762100;81;21056;-73
2021/11/25 10:13:55;;;;;;;56.98;32.08;;;;;;;2.69;83.43;99980.56;1762027;81;21016;-73
2021/11/25 10:16:29;;;;;;;50.10;28.30;;;;;;;2.71;83.39;99979.97;1761954;81;27319;-73
2021/11/25 10:19:01;;;;;;;46.68;28.12;;;;;;;2.71;83.37;99979.97;1762059;81;21477;-73
2021/11/25 10:21:27;;;;;;;47.98;27.93;;;;;;;2.68;83.29;99986.78;1756990;81;21192;-73
2021/11/25 10:23:56;;;;;;;42.03;26.93;;;;;;;2.64;83.28;99977.00;1761146;81;20977;-73
2021/11/25 10:26:25;;;;;;;51.53;27.52;;;;;;;2.60;83.23;99985.30;1758552;81;21051;-73
2021/11/25 10:28:59;;;;;;;47.45;29.05;;;;;;;2.59;83.20;99966.52;1758970;81;21107;-73
2021/11/25 10:31:30;;;;;;;47.40;28.07;;;;;;;2.60;83.14;99957.67;1758813;81;21000;-73
2021/11/25 10:34:12;;;;;;;43.48;26.93;;;;;;;2.59;83.09;99963.41;1759129;81;21079;-73
2021/11/25 10:39:49;;;;;;;48.28;27.75;;;;;;;2.57;82.99;99960.56;1758783;81;21455;-73
2021/11/25 10:42:17;;;;;;;49.80;30.92;;;;;;;2.63;82.95;99963.98;1758993;81;21007;-73
2021/11/25 10:44:50;;;;;;;55.90;33.28;;;;;;;2.62;82.87;99957.88;1758730;81;21005;-74
2021/11/25 10:47:25;;;;;;;46.10;31.05;;;;;;;2.64;82.84;99958.57;1759119;81;21836;-74
2021/11/25 10:49:57;;;;;;;57.55;33.42;;;;;;;2.67;82.81;99950.92;1758826;81;21005;-73
2021/11/25 10:52:41;;;;;;;45.05;29.07;;;;;;;2.73;82.77;99950.39;1758853;81;21039;-73
2021/11/25 10:55:19;;;;;;;52.55;31.62;;;;;;;2.79;82.73;99951.17;1759031;81;21543;-73
2021/11/25 10:57:49;;;;;;;54.10;30.37;;;;;;;2.84;82.68;99955.57;1759138;81;21024;-74
2021/11/25 11:00:29;;;;;;;49.70;28.35;;;;;;;2.96;82.65;99942.64;1759012;81;21147;-73
2021/11/25 11:03:10;;;;;;;51.13;30.12;;;;;;;2.98;82.57;99948.63;1758411;81;21001;-73
2021/11/25 11:05:59;;;;;;;45.92;27.87;;;;;;;3.05;82.53;99944.50;1756112;81;21005;-73
2021/11/25 11:08:32;;;;;;;49.40;27.77;;;;;;;3.11;82.47;99936.05;1759006;81;20996;-73
2021/11/25 11:11:01;;;;;;;49.55;27.05;;;;;;;3.08;82.40;99927.59;1756541;81;21040;-73
2021/11/25 11:21:37;;;;;;;46.40;30.35;;;;;;;3.09;82.14;99924.84;1759120;81;21572;-73
2021/11/25 11:24:27;;;;;;;32.23;21.07;;;;;;;3.12;82.04;99923.24;1759799;81;21044;-73
2021/11/25 11:26:58;;;;;;;38.35;26.05;;;;;;;3.12;81.90;99915.34;1761629;81;21153;-73
2021/11/25 11:29:27;;;;;;;42.20;25.82;;;;;;;3.12;81.75;99908.76;1761961;81;21016;-73
2021/11/25 11:31:56;;;;;;;39.55;25.10;;;;;;;3.11;81.61;99912.34;1762137;81;21001;-73
2021/11/25 11:34:22;;;;;;;38.67;23.85;;;;;;;3.09;81.48;99914.30;1762172;81;21012;-73
2021/11/25 11:36:52;;;;;;;43.10;25.75;;;;;;;3.09;81.29;99903.77;1762026;81;21015;-73
2021/11/25 11:39:20;;;;;;;;;;;;;;;3.04;81.11;99903.31;1764636;81;21075;-73
2021/11/25 11:41:52;;;;;;;45.28;25.37;;;;;;;3.02;80.95;99901.31;1762058;81;20138;-73
2021/11/25 11:44:21;;;;;;;53.63;32.30;;;;;;;3.04;80.84;99903.31;1761940;81;21024;-73
2021/11/25 11:49:31;;;;;;;37.55;24.18;;;;;;;3.14;80.56;99892.31;1820261;78;22732;-74
2021/11/25 11:52:15;;;;;;;41.77;25.43;;;;;;;3.12;80.45;99878.46;1790413;80;20918;-74
2021/11/25 11:54:48;;;;;;;38.85;25.27;;;;;;;3.14;80.31;99868.61;1790472;79;21662;-73
2021/11/25 11:57:35;;;;;;;38.63;23.57;;;;;;;3.11;80.17;99863.62;1790267;80;21204;-73
2021/11/25 12:00:13;;;;;;;41.33;23.80;;;;;;;3.15;80.07;99869.45;1790677;80;20998;-73
2021/11/25 12:02:52;;;;;;;37.70;24.47;;;;;;;3.19;79.97;99865.09;1785730;80;21122;-73
2021/11/25 12:05:48;;;;;;;40.52;21.82;;;;;;;3.26;79.89;99866.22;1790871;79;21045;-73
2021/11/25 12:08:33;;;;;;;39.27;24.57;;;;;;;3.32;79.82;99855.60;1790574;80;21693;-73
2021/11/25 12:11:07;;;;;;;41.95;23.90;;;;;;;3.34;79.73;99850.53;1789984;80;20990;-73
2021/11/25 12:13:51;;;;;;;37.35;23.30;;;;;;;3.32;79.62;99841.95;1789798;80;21002;-73
2021/11/25 12:16:22;;;;;;;40.78;24.18;;;;;;;3.30;79.54;99842.58;1790540;80;21049;-73
2021/11/25 12:18:58;;;;;;;57.08;29.10;;;;;;;3.32;79.47;99838.48;1790451;80;21001;-73
2021/11/25 12:21:44;;;;;;;53.13;28.98;;;;;;;3.31;79.39;99830.21;1789744;80;21234;-73
2021/11/25 12:24:23;;;;;;;47.53;25.12;;;;;;;3.31;79.32;99829.73;1788800;80;20985;-73
2021/11/25 12:27:13;;;;;;;44.20;27.22;;;;;;;3.31;79.25;99828.41;1789015;80;21037;-73
2021/11/25 12:30:04;;;;;;;60.12;31.62;;;;;;;3.33;79.20;99823.86;1788986;80;21475;-73
2021/11/25 12:32:48;;;;;;;53.33;27.05;;;;;;;3.38;79.11;99826.89;1789101;80;20986;-73
2021/11/25 12:35:37;;;;;;;50.85;29.32;;;;;;;3.45;79.07;99817.94;1788899;80;21962;-74
2021/11/25 12:38:12;;;;;;;85.87;40.08;;;;;;;3.55;79.02;99815.33;1788847;80;20983;-73
2021/11/25 12:40:51;;;;;;;54.60;30.08;;;;;;;3.66;78.98;99807.27;1785389;80;21000;-74